Česky Dansk Deutsch English Español Suomi Français Magyar Italiano Nederlands norsk Polski Português svenska Türkçe

 

Het Weer

Bangui (Central African Republic)

14:00, 21 augustus 2016 (GMT)

NWNNE
WE
SWSSE
Home            
Bangui Bossembele Gemena Bossangoa Bambari Berberati Alindao Impfondo Bouar Ouesso Bria Batouri Bangassou Mbandaka N'Dele Betare-Oya Meiganga Sarh Moundou Souanke Lomie Boende Yalinga

Om een weerknop op uw website of weblog te plaatsen, copieer onderstaande code en plak die in uw pagina. In het eerste vakje staat HTML-code, in het tweede vakje UBB-code.


Add to Google

Details

Wind speed:1 bf, 2 kn, 1.0 m/s, 2.3 miles/h, 3.7 km/h
Wind direction:Variable
Widzialność pozioma:Więcej niż 10000 m, 10 km, 32800 ft, 6.2 miles
Clouds:Zachmurzenie niewielkie at 1600 ft, 488 m
Temperatura:26°C, 79°F
Gefühlte Temperatur:28°C, 82°F
Punkt rosy:23°C, 73°F
Ciśnienie QHN:1011 hPa, 758.3 mmHg, 29.85 inHg, 0.998 atm
Wilgotność względna:83.6 %
METAR:FEFF 211400Z VRB02KT 9999 FEW016 26/23 Q1011 NOSIG

Snelkoppelingen

Actuele weersinformatie van de hele wereld. Voeg locaties toe met het plus (+) symbool. Deze snelkoppelingen kunnen worden toegevoegd aan Google.

Lid van de Technetium groep

website free tracking
StatCounter NetStat W3C Validator

20-07-2018 02:21:39
astro.technetium.be money.technetium.be phote.technetium.be tafeltennistafel.technetium.be www.ligfiets.net